Time;durP1;ratioP1;P1;durP2;ratioP2;P2;SDS_P1;SDS_P2;PMS_P1;PMS_P2;Temp;Humidity;BMP_temperature;BMP_pressure;BME280_temperature;BME280_humidity;BME280_pressure;Samples;Min_cycle;Max_cycle;Signal;HPM_P1;HPM_P2
2021/07/05 00:02:16;;;;;;;1.23;0.32;;;;;;;15.35;85.90;96187.59;5075104;28;20041;-75
2021/07/05 00:04:44;;;;;;;1.63;0.45;;;;;;;15.36;86.12;96188.38;5073995;28;20037;-74
2021/07/05 00:07:10;;;;;;;1.98;0.50;;;;;;;15.38;86.35;96192.34;5075588;28;20039;-74
2021/07/05 00:09:37;;;;;;;1.45;0.40;;;;;;;15.40;86.28;96198.19;5075387;28;20052;-74
2021/07/05 00:12:05;;;;;;;0.75;0.52;;;;;;;15.42;86.29;96197.94;5074354;28;20469;-74
2021/07/05 00:14:32;;;;;;;1.15;0.60;;;;;;;15.43;86.08;96199.50;5075076;28;20052;-74
2021/07/05 00:16:58;;;;;;;2.03;0.63;;;;;;;15.41;85.97;96188.41;5074763;28;20067;-74
2021/07/05 00:19:24;;;;;;;1.30;0.38;;;;;;;15.43;86.05;96183.66;5074901;28;20056;-74
2021/07/05 00:21:51;;;;;;;1.75;0.52;;;;;;;15.40;86.03;96171.75;5074782;28;20047;-74
2021/07/05 00:24:18;;;;;;;1.45;0.57;;;;;;;15.39;85.90;96170.19;5075120;28;20028;-73
2021/07/05 00:26:45;;;;;;;0.90;0.60;;;;;;;15.39;86.00;96172.00;5075267;28;20457;-74
2021/07/05 00:29:11;;;;;;;0.65;0.40;;;;;;;15.36;86.00;96170.66;5074887;28;20044;-74
2021/07/05 00:31:39;;;;;;;0.40;0.40;;;;;;;15.34;86.00;96169.34;5074548;28;20048;-74
2021/07/05 00:34:11;;;;;;;0.55;0.35;;;;;;;15.32;86.14;96169.59;5074974;28;20036;-74
2021/07/05 00:36:37;;;;;;;0.95;0.40;;;;;;;15.29;86.10;96183.31;5075046;28;20476;-74
2021/07/05 00:39:03;;;;;;;0.75;0.40;;;;;;;15.27;86.27;96182.78;5074721;28;20107;-74
2021/07/05 00:41:30;;;;;;;0.68;0.50;;;;;;;15.29;86.35;96190.44;5073806;28;20051;-74
2021/07/05 00:43:57;;;;;;;0.50;0.50;;;;;;;15.29;86.54;96191.25;5074350;28;20029;-75
2021/07/05 00:46:24;;;;;;;2.20;0.50;;;;;;;15.28;86.23;96175.63;5074099;28;20071;-74
2021/07/05 00:48:51;;;;;;;0.50;0.50;;;;;;;15.23;86.31;96173.75;5074435;28;20036;-74
2021/07/05 00:51:18;;;;;;;0.73;0.50;;;;;;;15.21;86.24;96168.72;5073968;28;20465;-74
2021/07/05 00:53:46;;;;;;;0.50;0.35;;;;;;;15.23;86.64;96160.56;5074433;28;20052;-74
2021/07/05 00:56:12;;;;;;;0.47;0.47;;;;;;;15.24;86.54;96164.78;5074256;28;20025;-73
2021/07/05 00:58:39;;;;;;;0.73;0.45;;;;;;;15.24;86.46;96164.78;5073361;28;20221;-73
2021/07/05 01:01:05;;;;;;;1.45;0.30;;;;;;;15.24;86.38;96164.78;5074693;28;20032;-74
2021/07/05 01:03:32;;;;;;;0.50;0.40;;;;;;;15.25;86.50;96168.22;5073423;28;20051;-74
2021/07/05 01:05:58;;;;;;;1.42;0.50;;;;;;;15.24;86.42;96162.13;5074509;28;20059;-74
2021/07/05 01:08:24;;;;;;;2.05;0.38;;;;;;;15.24;86.44;96170.06;5073561;28;20040;-74
2021/07/05 01:10:50;;;;;;;1.05;0.40;;;;;;;15.24;86.43;96170.06;5073667;28;20056;-74
2021/07/05 01:13:16;;;;;;;0.47;0.40;;;;;;;15.22;86.32;96162.41;5073642;28;20044;-74
2021/07/05 01:15:43;;;;;;;1.48;0.50;;;;;;;15.19;86.06;96170.03;5072942;28;20052;-74
2021/07/05 01:18:09;;;;;;;0.32;0.32;;;;;;;15.14;86.13;96162.06;5074338;28;20040;-74
2021/07/05 01:20:38;;;;;;;0.40;0.40;;;;;;;15.10;85.99;96174.19;5073746;28;20473;-74
2021/07/05 01:23:07;;;;;;;1.08;0.63;;;;;;;15.07;86.00;96169.41;5073901;28;20033;-74
2021/07/05 01:25:35;;;;;;;0.47;0.40;;;;;;;15.05;86.44;96163.59;5073570;28;20049;-73
2021/07/05 01:28:02;;;;;;;0.65;0.40;;;;;;;15.06;86.59;96157.28;5073483;28;20036;-73
2021/07/05 01:30:28;;;;;;;0.60;0.52;;;;;;;15.08;86.61;96149.91;5073542;28;20044;-73
2021/07/05 01:32:59;;;;;;;1.40;0.50;;;;;;;15.06;86.45;96144.84;5073694;28;20025;-74
2021/07/05 01:35:26;;;;;;;0.40;0.40;;;;;;;15.02;86.33;96144.56;5073985;28;20042;-74
2021/07/05 01:37:53;;;;;;;1.55;0.50;;;;;;;15.01;86.59;96137.69;5061724;28;20044;-74
2021/07/05 01:40:19;;;;;;;1.02;0.50;;;;;;;15.02;86.78;96144.56;5073252;28;20388;-74
2021/07/05 01:42:52;;;;;;;1.35;0.40;;;;;;;15.01;86.62;96142.16;5073727;28;20404;-74
2021/07/05 01:45:24;;;;;;;1.10;0.55;;;;;;;15.00;86.68;96149.31;5073230;28;20059;-73
2021/07/05 01:47:50;;;;;;;1.05;0.50;;;;;;;14.99;86.57;96144.25;5073168;28;20057;-74
2021/07/05 01:50:18;;;;;;;0.43;0.40;;;;;;;14.97;86.84;96141.06;5073373;28;20029;-73
2021/07/05 01:52:44;;;;;;;0.50;0.50;;;;;;;14.99;86.98;96142.44;5073167;28;20039;-74
2021/07/05 01:55:11;;;;;;;1.55;0.50;;;;;;;15.00;87.01;96144.03;5073900;28;20043;-74
2021/07/05 01:57:37;;;;;;;0.40;0.40;;;;;;;14.99;86.83;96146.91;5073736;28;20354;-75
2021/07/05 02:00:17;;;;;;;0.80;0.50;;;;;;;14.96;87.26;96142.94;5073226;28;20032;-74
2021/07/05 02:02:47;;;;;;;0.50;0.50;;;;;;;14.95;87.17;96140.53;5073390;28;20028;-74
2021/07/05 02:05:17;;;;;;;0.70;0.60;;;;;;;14.93;87.13;96151.38;5073488;28;20044;-74
2021/07/05 02:07:45;;;;;;;0.30;0.30;;;;;;;14.95;87.25;96145.81;5073240;28;20958;-74
2021/07/05 02:10:15;;;;;;;0.55;0.55;;;;;;;14.94;87.25;96146.88;5072304;28;20051;-73
2021/07/05 02:12:42;;;;;;;0.30;0.30;;;;;;;14.96;87.25;96135.00;5073285;28;20119;-74
2021/07/05 02:15:12;;;;;;;1.67;0.65;;;;;;;14.95;87.34;96128.16;5071990;28;20041;-74
2021/07/05 02:17:38;;;;;;;0.40;0.40;;;;;;;14.92;87.14;96135.78;5073366;28;20389;-74
2021/07/05 02:20:11;;;;;;;0.82;0.40;;;;;;;14.87;87.28;96139.19;5071601;28;20373;-74
2021/07/05 02:22:38;;;;;;;0.63;0.63;;;;;;;14.84;87.38;96129.09;5072151;28;20048;-74
2021/07/05 02:25:10;;;;;;;0.90;0.50;;;;;;;14.85;87.79;96124.63;5072736;28;20052;-74
2021/07/05 02:27:41;;;;;;;0.35;0.35;;;;;;;14.85;87.85;96120.16;5073235;28;20039;-73
2021/07/05 02:30:13;;;;;;;0.40;0.40;;;;;;;14.88;87.92;96124.13;5073298;28;20060;-74
2021/07/05 02:32:43;;;;;;;0.40;0.40;;;;;;;14.89;87.90;96118.59;5073356;28;20025;-74
2021/07/05 02:35:11;;;;;;;0.60;0.60;;;;;;;14.91;87.91;96113.88;5072452;28;20045;-74
2021/07/05 02:37:39;;;;;;;0.45;0.30;;;;;;;14.91;88.00;96118.31;5072021;28;20029;-74
2021/07/05 02:40:11;;;;;;;0.60;0.55;;;;;;;14.91;88.22;96111.22;5072521;28;20044;-74
2021/07/05 02:42:37;;;;;;;0.73;0.63;;;;;;;14.91;88.14;96113.03;5072753;28;20032;-74
2021/07/05 02:45:05;;;;;;;1.35;0.52;;;;;;;14.92;88.19;96125.22;5072705;28;20068;-74
2021/07/05 02:47:32;;;;;;;0.47;0.30;;;;;;;14.93;87.95;96127.59;5071276;28;20055;-74
2021/07/05 02:49:58;;;;;;;0.40;0.40;;;;;;;14.93;88.20;96124.97;5072379;28;20045;-74
2021/07/05 02:52:24;;;;;;;1.95;0.60;;;;;;;14.96;88.21;96127.09;5064287;28;20036;-74
2021/07/05 02:54:50;;;;;;;0.25;0.25;;;;;;;14.96;88.20;96127.09;5072162;28;20045;-73
2021/07/05 02:57:29;;;;;;;0.55;0.40;;;;;;;14.96;88.24;96127.09;5071547;28;20043;-74
2021/07/05 03:00:08;;;;;;;1.35;0.45;;;;;;;14.98;88.02;96129.47;5071257;28;20075;-74
2021/07/05 03:02:34;;;;;;;1.45;0.40;;;;;;;14.97;88.23;96135.78;5071204;28;20049;-74
2021/07/05 03:05:01;;;;;;;0.50;0.43;;;;;;;14.97;88.00;96141.91;5073105;28;20036;-73
2021/07/05 03:07:27;;;;;;;1.67;0.40;;;;;;;14.98;88.16;96121.56;5072730;28;20028;-74
2021/07/05 03:09:54;;;;;;;0.50;0.47;;;;;;;14.98;88.22;96119.72;5070628;28;20051;-74
2021/07/05 03:12:21;;;;;;;2.15;0.50;;;;;;;14.96;88.06;96121.03;5071197;28;20500;-74
2021/07/05 03:14:48;;;;;;;0.57;0.55;;;;;;;14.96;88.04;96118.38;5072171;28;20044;-74
2021/07/05 03:17:14;;;;;;;0.80;0.40;;;;;;;14.93;88.00;96124.97;5072391;28;20045;-74
2021/07/05 03:19:41;;;;;;;2.40;0.70;;;;;;;14.93;88.05;96122.31;5072506;28;20033;-74
2021/07/05 03:22:08;;;;;;;0.47;0.43;;;;;;;14.90;87.99;96124.66;5073263;28;20040;-74
2021/07/05 03:24:34;;;;;;;0.50;0.50;;;;;;;14.87;88.00;96125.97;5076034;28;20052;-74
2021/07/05 03:27:00;;;;;;;0.90;0.55;;;;;;;14.87;88.23;96125.19;5075437;28;20052;-74
2021/07/05 03:29:26;;;;;;;1.60;0.57;;;;;;;14.87;88.10;96122.53;5075491;28;20040;-74
2021/07/05 03:31:52;;;;;;;0.65;0.45;;;;;;;14.86;87.97;96118.31;5076102;28;20040;-74
2021/07/05 03:34:18;;;;;;;0.85;0.60;;;;;;;14.84;87.97;96128.31;5076006;28;20039;-74
2021/07/05 03:36:45;;;;;;;1.38;0.60;;;;;;;14.82;87.97;96118.81;5075928;28;20453;-74
2021/07/05 03:39:11;;;;;;;3.60;0.47;;;;;;;14.82;87.99;96112.72;5075894;28;20040;-74
2021/07/05 03:41:37;;;;;;;0.93;0.60;;;;;;;14.82;87.89;96121.47;5075931;28;20479;-74
2021/07/05 03:44:03;;;;;;;3.33;0.50;;;;;;;14.79;87.71;96115.88;5074447;28;20044;-74
2021/07/05 03:46:29;;;;;;;2.33;0.55;;;;;;;14.74;87.44;96108.72;5075330;28;20044;-74
2021/07/05 03:48:55;;;;;;;0.65;0.65;;;;;;;14.71;87.73;96100.50;5074479;28;20045;-74
2021/07/05 03:51:21;;;;;;;0.60;0.50;;;;;;;14.73;87.95;96101.06;5074124;28;20040;-74
2021/07/05 03:53:47;;;;;;;0.40;0.40;;;;;;;14.73;87.87;96104.47;5075016;28;20503;-74
2021/07/05 03:56:13;;;;;;;2.15;0.50;;;;;;;14.77;87.88;96104.78;5074828;28;20037;-74
2021/07/05 03:58:40;;;;;;;0.82;0.40;;;;;;;14.77;87.82;96100.28;5075948;28;20496;-74
2021/07/05 04:01:06;;;;;;;0.73;0.40;;;;;;;14.79;87.75;96100.81;5075331;28;20029;-74
2021/07/05 04:03:32;;;;;;;2.30;0.63;;;;;;;14.81;87.57;96104.00;5075460;28;20032;-74
2021/07/05 04:05:59;;;;;;;0.45;0.40;;;;;;;14.84;87.48;96094.00;5074915;28;20083;-74
2021/07/05 04:08:28;;;;;;;0.40;0.40;;;;;;;14.84;87.46;96097.44;5075005;28;20040;-74
2021/07/05 04:10:55;;;;;;;0.65;0.60;;;;;;;14.85;87.39;96098.25;5075572;28;20044;-74
2021/07/05 04:13:22;;;;;;;0.45;0.40;;;;;;;14.85;87.28;96103.53;5075037;28;20044;-73
2021/07/05 04:15:49;;;;;;;1.13;0.50;;;;;;;14.82;87.28;96108.25;5075180;28;20041;-74
2021/07/05 04:18:15;;;;;;;1.25;0.60;;;;;;;14.83;87.13;96106.41;5074340;28;20056;-74
2021/07/05 04:20:41;;;;;;;0.50;0.50;;;;;;;14.84;87.33;96115.13;5074563;28;20457;-74
2021/07/05 04:23:07;;;;;;;0.50;0.50;;;;;;;14.85;87.34;96122.78;5074867;28;20503;-74
2021/07/05 04:25:34;;;;;;;1.05;0.60;;;;;;;14.85;87.54;96117.50;5075269;28;20045;-73
2021/07/05 04:28:01;;;;;;;0.40;0.40;;;;;;;14.84;87.47;96130.97;5074632;28;20040;-74
2021/07/05 04:30:28;;;;;;;1.42;0.60;;;;;;;14.86;87.66;96134.94;5074784;28;20040;-74
2021/07/05 04:32:55;;;;;;;1.25;0.80;;;;;;;14.89;87.43;96136.25;5074235;28;20047;-73
2021/07/05 04:35:21;;;;;;;0.88;0.60;;;;;;;14.91;87.55;96144.72;5073937;28;20052;-74
2021/07/05 04:37:49;;;;;;;0.35;0.35;;;;;;;14.97;87.54;96149.00;5073793;28;20055;-74
2021/07/05 04:40:18;;;;;;;0.68;0.68;;;;;;;15.05;87.79;96145.91;5074548;28;20060;-74
2021/07/05 04:42:45;;;;;;;1.20;0.60;;;;;;;15.17;87.70;96148.38;5074677;28;20476;-73
2021/07/05 04:45:13;;;;;;;1.55;0.73;;;;;;;15.36;87.60;96143.47;5073767;28;20053;-74
2021/07/05 04:47:40;;;;;;;1.55;0.77;;;;;;;15.49;87.17;96135.06;5074955;28;20401;-74
2021/07/05 04:50:09;;;;;;;1.58;0.70;;;;;;;15.54;86.46;96137.75;5073694;28;20060;-74
2021/07/05 04:52:36;;;;;;;0.60;0.60;;;;;;;15.52;86.19;96131.94;5074074;28;20031;-74
2021/07/05 04:55:06;;;;;;;0.60;0.60;;;;;;;15.50;86.21;96127.97;5074197;28;20424;-74
2021/07/05 04:57:34;;;;;;;1.92;0.85;;;;;;;15.46;85.95;96121.59;5074039;28;20408;-74
2021/07/05 05:00:00;;;;;;;0.55;0.55;;;;;;;15.46;86.23;96119.75;5073673;28;20050;-74
2021/07/05 05:02:27;;;;;;;3.10;0.70;;;;;;;15.47;86.41;96102.81;5073883;28;20039;-74
2021/07/05 05:04:53;;;;;;;1.25;0.70;;;;;;;15.46;86.20;96095.16;5073490;28;20051;-73
2021/07/05 05:07:19;;;;;;;1.50;0.50;;;;;;;15.45;86.29;96102.28;5074012;28;20396;-74
2021/07/05 05:09:46;;;;;;;0.50;0.50;;;;;;;15.42;86.44;96113.38;5073973;28;20036;-74
2021/07/05 05:12:12;;;;;;;2.33;0.90;;;;;;;15.40;86.56;96120.75;5073377;28;20051;-74
2021/07/05 05:14:38;;;;;;;0.73;0.60;;;;;;;15.39;86.81;96121.78;5073284;28;20053;-73
2021/07/05 05:17:06;;;;;;;2.40;0.75;;;;;;;15.40;86.77;96126.03;5073399;28;20035;-74
2021/07/05 05:19:33;;;;;;;0.88;0.57;;;;;;;15.40;86.89;96136.63;5073820;28;20033;-73
2021/07/05 05:22:00;;;;;;;0.52;0.52;;;;;;;15.39;86.92;96142.94;5073536;28;20025;-74
2021/07/05 05:24:26;;;;;;;2.00;0.60;;;;;;;15.39;87.05;96138.47;5073804;28;20043;-74
2021/07/05 05:26:52;;;;;;;0.70;0.45;;;;;;;15.38;87.11;96152.72;5073553;28;20048;-74
2021/07/05 05:29:19;;;;;;;1.30;0.85;;;;;;;15.39;87.34;96145.56;5073325;28;20032;-74
2021/07/05 05:31:45;;;;;;;1.27;0.50;;;;;;;15.39;87.49;96140.28;5072928;28;20056;-74
2021/07/05 05:34:11;;;;;;;1.20;0.60;;;;;;;15.42;87.54;96147.72;5073913;28;20037;-74
2021/07/05 05:36:37;;;;;;;0.82;0.50;;;;;;;15.43;87.64;96144.03;5073554;28;20040;-74
2021/07/05 05:39:03;;;;;;;1.30;0.70;;;;;;;15.43;87.39;96159.88;5073199;28;20028;-74
2021/07/05 05:41:30;;;;;;;1.63;0.60;;;;;;;15.40;87.50;96152.47;5073388;28;20032;-74
2021/07/05 05:44:00;;;;;;;0.68;0.47;;;;;;;15.41;87.95;96157.50;5072586;28;20044;-74
2021/07/05 05:46:32;;;;;;;0.52;0.50;;;;;;;15.43;87.80;96165.97;5060371;28;20044;-74
2021/07/05 05:48:59;;;;;;;1.70;0.60;;;;;;;15.44;87.71;96156.19;5073343;28;20051;-74
2021/07/05 05:51:32;;;;;;;1.42;0.60;;;;;;;15.46;87.91;96151.44;5073496;28;20055;-73
2021/07/05 05:53:59;;;;;;;0.80;0.70;;;;;;;15.47;88.25;96147.75;5073246;28;20024;-73
2021/07/05 05:56:31;;;;;;;1.33;0.60;;;;;;;15.49;88.54;96156.22;5072922;28;20040;-74
2021/07/05 05:59:06;;;;;;;2.22;0.80;;;;;;;15.49;88.05;96163.34;5073559;28;20048;-72
2021/07/05 06:01:34;;;;;;;0.98;0.60;;;;;;;15.52;88.31;96149.63;5073100;28;20389;-72
2021/07/05 06:04:00;;;;;;;0.73;0.70;;;;;;;15.55;88.53;96155.19;5073244;28;20470;-72
2021/07/05 06:06:27;;;;;;;0.90;0.75;;;;;;;15.59;88.72;96158.13;5072749;28;20036;-72
2021/07/05 06:08:53;;;;;;;0.85;0.85;;;;;;;15.62;88.69;96162.88;5072846;28;20037;-72
2021/07/05 06:11:20;;;;;;;0.60;0.60;;;;;;;15.63;88.72;96161.84;5072386;28;20048;-72
2021/07/05 06:13:48;;;;;;;0.70;0.60;;;;;;;15.66;88.90;96149.97;5072276;28;20059;-73
2021/07/05 06:16:15;;;;;;;0.63;0.60;;;;;;;15.68;88.96;96153.13;5073103;28;20453;-72
2021/07/05 06:18:41;;;;;;;0.50;0.50;;;;;;;15.68;89.06;96153.94;5072812;28;20044;-73
2021/07/05 06:21:08;;;;;;;1.30;0.80;;;;;;;15.70;89.29;96151.03;5072941;28;20039;-72
2021/07/05 06:23:34;;;;;;;0.60;0.60;;;;;;;15.66;89.11;96150.75;5072174;28;20048;-73
2021/07/05 06:26:02;;;;;;;0.65;0.52;;;;;;;15.66;89.52;96148.09;5072552;28;20047;-72
2021/07/05 06:28:30;;;;;;;1.13;0.70;;;;;;;15.67;89.85;96141.00;5072789;28;20383;-72
2021/07/05 06:30:57;;;;;;;0.77;0.60;;;;;;;15.68;89.96;96148.63;5072476;28;20393;-72
2021/07/05 06:33:24;;;;;;;0.65;0.60;;;;;;;15.71;90.06;96142.06;5072860;28;20024;-72
2021/07/05 06:35:51;;;;;;;1.02;0.80;;;;;;;15.74;90.24;96138.91;5072767;28;20409;-72
2021/07/05 06:38:19;;;;;;;2.65;0.70;;;;;;;15.76;90.27;96142.09;5072428;28;20032;-72
2021/07/05 06:40:46;;;;;;;0.65;0.63;;;;;;;15.73;90.21;96143.41;5072756;28;20472;-72
2021/07/05 06:43:13;;;;;;;0.65;0.65;;;;;;;15.73;90.32;96148.72;5072447;28;20053;-72
2021/07/05 06:45:41;;;;;;;1.80;0.70;;;;;;;15.71;90.48;96148.16;5072698;28;20123;-72
2021/07/05 06:48:08;;;;;;;0.98;0.65;;;;;;;15.67;90.68;96141.00;5072470;28;20037;-72
2021/07/05 06:50:35;;;;;;;1.63;0.70;;;;;;;15.65;90.54;96143.09;5072561;28;20040;-71
2021/07/05 06:53:02;;;;;;;0.80;0.80;;;;;;;15.62;91.16;96145.19;5071355;28;20465;-72
2021/07/05 06:55:28;;;;;;;1.38;0.90;;;;;;;15.58;91.43;96143.31;5072168;28;20041;-72
2021/07/05 06:57:54;;;;;;;0.63;0.50;;;;;;;15.64;91.80;96147.56;5075464;28;20040;-72
2021/07/05 07:00:23;;;;;;;1.88;0.98;;;;;;;15.78;92.22;96140.78;5076068;28;20040;-72
2021/07/05 07:02:50;;;;;;;2.13;0.60;;;;;;;15.87;91.96;96137.66;5075935;28;20028;-72
2021/07/05 07:05:18;;;;;;;1.08;0.73;;;;;;;15.94;91.84;96139.00;5076083;28;20048;-72
2021/07/05 07:07:47;;;;;;;1.10;0.90;;;;;;;15.91;91.29;96136.88;5076227;28;20036;-72
2021/07/05 07:10:16;;;;;;;3.88;0.90;;;;;;;15.85;91.41;96140.53;5075674;28;20055;-72
2021/07/05 07:12:47;;;;;;;2.30;0.82;;;;;;;15.83;91.76;96142.66;5075478;28;20424;-72
2021/07/05 07:15:17;;;;;;;1.08;0.80;;;;;;;15.83;91.99;96143.47;5076345;28;20039;-72
2021/07/05 07:17:50;;;;;;;0.70;0.70;;;;;;;15.86;92.27;96144.78;5075433;28;20048;-72
2021/07/05 07:20:16;;;;;;;1.27;0.80;;;;;;;15.87;91.91;96133.16;5073866;28;20048;-72
2021/07/05 07:22:43;;;;;;;0.63;0.63;;;;;;;15.85;91.40;96137.13;5075527;28;20043;-72
2021/07/05 07:25:12;;;;;;;0.77;0.57;;;;;;;15.85;91.88;96139.75;5075420;28;20036;-72
2021/07/05 07:27:39;;;;;;;1.02;0.88;;;;;;;15.89;92.36;96133.69;5074872;28;20040;-72
2021/07/05 07:30:07;;;;;;;0.70;0.70;;;;;;;15.94;92.54;96125.00;5075582;28;20045;-72
2021/07/05 07:32:34;;;;;;;1.05;0.73;;;;;;;15.97;92.59;96132.41;5075065;28;20048;-72
2021/07/05 07:35:00;;;;;;;0.95;0.88;;;;;;;15.99;92.75;96133.72;5075507;28;20032;-72
2021/07/05 07:37:26;;;;;;;0.90;0.90;;;;;;;16.08;92.99;96135.88;5075754;28;20043;-72
2021/07/05 07:40:02;;;;;;;0.80;0.80;;;;;;;16.15;93.47;96126.63;5075224;28;20032;-72
2021/07/05 07:42:28;;;;;;;2.33;0.70;;;;;;;16.22;93.04;96132.47;5075084;28;20039;-73
2021/07/05 07:44:54;;;;;;;0.93;0.93;;;;;;;16.23;92.54;96144.66;5074843;28;20059;-73
2021/07/05 07:47:20;;;;;;;0.80;0.80;;;;;;;16.20;92.41;96144.38;5075476;28;20036;-72
2021/07/05 07:49:46;;;;;;;0.85;0.80;;;;;;;16.21;92.71;96141.47;5075128;28;20041;-72
2021/07/05 07:52:13;;;;;;;2.17;1.08;;;;;;;16.24;93.30;96146.22;5074465;28;20052;-73
2021/07/05 07:54:39;;;;;;;1.10;0.70;;;;;;;16.29;93.52;96124.28;5074999;28;20032;-72
2021/07/05 07:57:05;;;;;;;0.60;0.50;;;;;;;16.34;92.65;96126.16;5075066;28;20036;-72
2021/07/05 07:59:31;;;;;;;0.55;0.55;;;;;;;16.35;93.27;96131.16;5074674;28;20029;-72
2021/07/05 08:01:57;;;;;;;1.00;0.95;;;;;;;16.39;93.24;96126.94;5074836;28;20029;-72
2021/07/05 08:04:24;;;;;;;1.58;1.00;;;;;;;16.39;92.73;96126.16;5074640;28;20051;-72
2021/07/05 08:06:50;;;;;;;0.95;0.73;;;;;;;16.40;93.03;96133.84;5074928;28;20055;-72
2021/07/05 08:09:17;;;;;;;0.65;0.65;;;;;;;16.44;93.02;96121.66;5073766;28;20044;-72
2021/07/05 08:11:43;;;;;;;0.82;0.60;;;;;;;16.42;92.48;96121.13;5073457;28;20047;-72
2021/07/05 08:14:09;;;;;;;4.22;0.70;;;;;;;16.41;92.60;96126.69;5074760;28;20045;-72
2021/07/05 08:16:36;;;;;;;1.75;0.85;;;;;;;16.43;93.21;96127.22;5074735;28;20044;-73
2021/07/05 08:19:02;;;;;;;0.60;0.60;;;;;;;16.49;93.64;96126.16;5075386;28;20063;-72
2021/07/05 08:21:28;;;;;;;0.88;0.60;;;;;;;16.52;93.55;96128.28;5073700;28;20045;-73
2021/07/05 08:23:54;;;;;;;0.98;0.73;;;;;;;16.57;93.69;96123.00;5074687;28;20461;-73
2021/07/05 08:26:21;;;;;;;0.63;0.50;;;;;;;16.64;93.93;96120.09;5073035;28;20388;-72
2021/07/05 08:28:47;;;;;;;1.05;0.90;;;;;;;16.69;93.47;96116.66;5074103;28;20037;-74
2021/07/05 08:31:14;;;;;;;1.33;0.70;;;;;;;16.69;92.72;96122.72;5074537;28;20047;-73
2021/07/05 08:33:40;;;;;;;0.93;0.85;;;;;;;16.66;92.95;96119.84;5074212;28;20029;-73
2021/07/05 08:36:07;;;;;;;0.50;0.50;;;;;;;16.67;92.92;96124.84;5074243;28;20036;-73
2021/07/05 08:38:33;;;;;;;0.73;0.73;;;;;;;16.65;92.56;96119.03;5074381;28;20116;-73
2021/07/05 08:41:01;;;;;;;0.57;0.57;;;;;;;16.63;92.58;96118.47;5073634;28;20045;-73
2021/07/05 08:43:28;;;;;;;0.60;0.60;;;;;;;16.60;92.26;96116.38;5073499;28;20036;-73
2021/07/05 08:46:03;;;;;;;0.55;0.55;;;;;;;16.61;92.56;96116.13;5073953;28;20045;-72
2021/07/05 08:48:32;;;;;;;0.70;0.70;;;;;;;16.68;93.07;96112.41;5074048;28;20059;-73
2021/07/05 08:51:00;;;;;;;0.70;0.70;;;;;;;16.68;92.23;96118.50;5073460;28;20114;-73
2021/07/05 08:53:27;;;;;;;0.50;0.50;;;;;;;16.66;92.04;96115.31;5073729;28;20055;-73
2021/07/05 08:55:54;;;;;;;0.77;0.70;;;;;;;16.63;92.13;96119.31;5073589;28;20028;-73
2021/07/05 08:58:20;;;;;;;0.60;0.60;;;;;;;16.62;91.75;96111.63;5073310;28;20053;-73
2021/07/05 09:00:47;;;;;;;0.30;0.30;;;;;;;16.63;91.61;96106.06;5074160;28;20040;-73
2021/07/05 09:03:13;;;;;;;0.60;0.50;;;;;;;16.60;91.89;96114.53;5073605;28;20036;-73
2021/07/05 09:05:39;;;;;;;0.30;0.30;;;;;;;16.53;90.89;96118.50;5072796;28;20049;-73
2021/07/05 09:08:10;;;;;;;0.38;0.38;;;;;;;16.36;89.38;96127.47;5073787;28;20044;-73
2021/07/05 09:10:42;;;;;;;0.30;0.30;;;;;;;16.22;90.35;96127.19;5072901;28;20499;-71
2021/07/05 09:13:17;;;;;;;0.73;0.50;;;;;;;16.13;91.69;96128.75;5072891;28;20500;-71
2021/07/05 09:15:49;;;;;;;0.40;0.40;;;;;;;16.14;92.40;96129.53;5073411;28;20047;-73
2021/07/05 09:18:27;;;;;;;0.75;0.40;;;;;;;16.16;93.16;96132.72;5073214;28;20114;-73
2021/07/05 09:20:57;;;;;;;0.30;0.30;;;;;;;16.18;92.53;96130.59;5073238;28;20028;-73
2021/07/05 09:23:24;;;;;;;0.22;0.22;;;;;;;16.20;92.58;96125.84;5073559;28;20390;-73
2021/07/05 09:25:53;;;;;;;0.75;0.40;;;;;;;16.23;92.57;96128.78;5073184;28;20385;-73
2021/07/05 09:28:23;;;;;;;0.30;0.30;;;;;;;16.29;92.75;96120.84;5073539;28;20040;-73
2021/07/05 09:30:52;;;;;;;0.50;0.50;;;;;;;16.32;92.27;96112.41;5073349;28;20032;-73
2021/07/05 09:33:29;;;;;;;0.57;0.40;;;;;;;16.30;92.74;96114.50;5072825;28;20051;-73
2021/07/05 09:36:01;;;;;;;0.50;0.50;;;;;;;16.37;92.52;96109.75;5073355;28;20048;-73
2021/07/05 09:38:43;;;;;;;0.50;0.50;;;;;;;16.47;91.51;96112.41;5072989;28;20365;-73
2021/07/05 09:41:28;;;;;;;0.52;0.52;;;;;;;16.54;91.92;96107.63;5073057;28;20040;-73
2021/07/05 09:44:01;;;;;;;0.30;0.30;;;;;;;16.51;91.80;96105.53;5063100;28;20043;-74
2021/07/05 09:46:38;;;;;;;0.60;0.47;;;;;;;16.49;91.48;96106.84;5064844;28;20401;-73
2021/07/05 09:49:17;;;;;;;0.50;0.50;;;;;;;16.42;91.81;96101.78;5058656;28;20044;-73
2021/07/05 09:51:46;;;;;;;1.98;0.50;;;;;;;16.39;91.92;96095.19;5072837;28;20480;-73
2021/07/05 09:54:23;;;;;;;0.60;0.60;;;;;;;16.34;92.79;96100.47;5071691;28;20040;-73
2021/07/05 09:56:53;;;;;;;0.40;0.40;;;;;;;16.33;92.72;96100.72;5072935;28;20036;-73
2021/07/05 09:59:25;;;;;;;0.63;0.52;;;;;;;16.35;92.38;96099.41;5073356;28;20476;-73
2021/07/05 10:01:56;;;;;;;0.50;0.50;;;;;;;16.39;92.96;96100.47;5072659;28;20380;-73
2021/07/05 10:04:32;;;;;;;0.45;0.45;;;;;;;16.47;93.38;96099.16;5072745;28;20046;-74
2021/07/05 10:07:02;;;;;;;0.32;0.32;;;;;;;16.51;93.19;96097.59;5072798;28;20041;-73
2021/07/05 10:09:34;;;;;;;1.02;0.50;;;;;;;16.57;93.58;96095.75;5072767;28;20024;-73
2021/07/05 10:12:27;;;;;;;0.30;0.30;;;;;;;16.62;93.82;96095.72;5072539;28;20047;-73
2021/07/05 10:14:54;;;;;;;0.30;0.30;;;;;;;16.67;93.06;96095.72;5070128;28;20357;-73
2021/07/05 10:17:22;;;;;;;0.50;0.47;;;;;;;16.71;92.66;96088.03;5071951;28;20052;-73
2021/07/05 10:19:48;;;;;;;0.50;0.50;;;;;;;16.74;92.60;96096.25;5073463;28;20393;-73
2021/07/05 10:22:15;;;;;;;0.40;0.40;;;;;;;16.81;93.03;96098.66;5072546;28;20051;-73
2021/07/05 10:24:43;;;;;;;0.35;0.32;;;;;;;16.86;92.84;96082.75;5072388;28;20142;-74
2021/07/05 10:27:11;;;;;;;0.43;0.40;;;;;;;16.89;92.52;96092.06;5072451;28;20051;-73
2021/07/05 10:29:42;;;;;;;0.40;0.40;;;;;;;16.89;92.23;96086.75;5072455;28;20033;-74
2021/07/05 10:32:09;;;;;;;0.57;0.47;;;;;;;16.85;91.95;96078.53;5073925;28;20041;-74
2021/07/05 10:34:37;;;;;;;0.40;0.40;;;;;;;16.83;91.88;96084.09;5076204;28;20389;-74
2021/07/05 10:37:06;;;;;;;0.60;0.60;;;;;;;16.91;92.27;96079.34;5076238;28;20063;-73
2021/07/05 10:39:34;;;;;;;0.50;0.50;;;;;;;16.94;92.08;96078.78;5076415;28;20028;-73
2021/07/05 10:42:01;;;;;;;0.73;0.50;;;;;;;17.03;92.28;96071.91;5076218;28;20036;-74
2021/07/05 10:44:41;;;;;;;3.00;0.50;;;;;;;17.11;91.96;96066.03;5076395;28;20040;-74
2021/07/05 10:47:07;;;;;;;0.32;0.32;;;;;;;17.19;91.69;96072.66;5076381;28;20087;-73
2021/07/05 10:49:34;;;;;;;0.40;0.40;;;;;;;17.28;91.63;96078.19;5075736;28;20057;-73
2021/07/05 10:52:16;;;;;;;0.60;0.60;;;;;;;17.37;91.60;96076.59;5076252;28;20465;-73
2021/07/05 10:54:54;;;;;;;0.40;0.40;;;;;;;17.43;91.25;96075.50;5075939;28;20036;-73
2021/07/05 10:57:32;;;;;;;0.70;0.60;;;;;;;17.50;91.26;96076.00;5075522;28;20036;-74
2021/07/05 11:00:19;;;;;;;0.50;0.50;;;;;;;17.54;90.34;96074.41;5076150;28;20087;-74
2021/07/05 11:02:46;;;;;;;0.40;0.40;;;;;;;17.57;90.60;96073.84;5075642;28;20064;-74
2021/07/05 11:05:30;;;;;;;0.75;0.70;;;;;;;17.59;91.05;96084.97;5076345;28;20025;-73
2021/07/05 11:08:48;;;;;;;0.55;0.50;;;;;;;17.64;90.77;96078.88;5075923;28;20473;-74
2021/07/05 11:11:23;;;;;;;0.50;0.50;;;;;;;17.61;90.32;96079.41;5067426;28;20040;-74
2021/07/05 11:14:09;;;;;;;1.60;0.90;;;;;;;17.58;90.11;96080.75;5075312;28;20040;-75
2021/07/05 11:16:59;;;;;;;0.50;0.50;;;;;;;17.62;92.88;96075.72;5074395;28;20033;-73
2021/07/05 11:19:48;;;;;;;0.50;0.50;;;;;;;17.72;91.08;96074.84;5075420;28;20473;-74
2021/07/05 11:22:17;;;;;;;1.83;0.80;;;;;;;17.78;90.87;96074.56;5065888;28;20032;-74
2021/07/05 11:24:47;;;;;;;0.52;0.52;;;;;;;17.92;90.85;96076.66;5075671;28;20052;-73
2021/07/05 11:27:46;;;;;;;0.40;0.40;;;;;;;18.10;90.48;96081.34;5075444;28;20408;-74
2021/07/05 11:30:24;;;;;;;0.50;0.50;;;;;;;18.23;89.14;96064.00;5075817;28;20037;-74
2021/07/05 11:32:54;;;;;;;0.50;0.50;;;;;;;18.23;88.88;96071.97;5061851;28;20039;-74
2021/07/05 11:35:43;;;;;;;0.70;0.70;;;;;;;18.19;88.28;96077.03;5075094;28;20055;-73
2021/07/05 11:38:30;;;;;;;1.05;0.52;;;;;;;18.16;88.63;96068.81;5075076;28;20032;-75
2021/07/05 11:41:12;;;;;;;0.63;0.40;;;;;;;18.18;86.94;96069.31;5075847;28;20369;-74
2021/07/05 11:44:01;;;;;;;0.40;0.40;;;;;;;18.20;88.21;96067.19;5073900;28;20033;-73